Accueil
METAR-TAF:

METAR-TAF

Aéroports :

Aéroport d'Anvers

Anvers, Belgique

latitude: 51-12N, longitude: 004-28E, altitude: 12 m

Observation

Le bulletin a été fait il y a 22 minutes, à 02:50 UTC
Vent 4 kt de sud-ouest
Température 17°C
Humidité 88%
Pression 1023 hPa
Visibilité 10 km ou plus

METAR: EBAW 200250Z AUTO 22004KT 9999 // OVC017/// 17/15 Q1023

Heure: 05:12 (03:12 UTC)

Prévision

Le bulletin a été fait il y a 52 minutes, à 02:20 UTC
Prévision valable du 20 à 03 UTC au 20 à 12 UTC
Vent 7 kt de sud-ouest
Visibilité 10 km ou plus
Nuages épars à une hauteur de 1800 ft

TAF: EBAW 200220Z 2003/2012 23007KT 9999 SCT018

Observations et prévisions météorologiques de plus de 4000 aéroports (messages METAR et TAF).

Les stations disponibles sont représentées par des disques jaunes et rouges sur la carte.

Passer la souris dessus pour voir le nom de la station.

Cliquer dessus pour voir les observations et prévisions météorologiques.

Pour changer de carte: cliquez sur les boutons verts avec une croix noire pour zoomer, sur le bouton vert avec un tiret pour effectuer un zoom arrière, ou sur les flèches vertes pour les cartes adjacentes.


METAR-TAF: